createdAt,value
2018-08-19T00:00:29.349Z,82.45
2018-08-19T00:02:09.576Z,81.77
2018-08-19T00:03:45.504Z,82.31
2018-08-19T00:05:21.562Z,82.62
2018-08-19T00:07:02.895Z,82.53
2018-08-19T00:08:38.193Z,83.52
2018-08-19T00:10:14.314Z,82.54
2018-08-19T00:11:49.777Z,82.93
2018-08-19T00:13:27.476Z,82.40
2018-08-19T00:15:07.877Z,83.08
2018-08-19T00:16:43.595Z,83.43
2018-08-19T00:18:20.891Z,82.98
2018-08-19T00:19:57.353Z,82.97
2018-08-19T00:21:33.368Z,83.50
2018-08-19T00:23:10.838Z,83.15
2018-08-19T00:24:47.403Z,83.27
2018-08-19T00:26:23.691Z,83.62
2018-08-19T00:27:59.953Z,83.78
2018-08-19T00:29:38.049Z,83.37
2018-08-19T00:31:20.116Z,83.21
2018-08-19T00:32:55.774Z,82.99
2018-08-19T00:34:34.572Z,83.35
2018-08-19T00:36:28.047Z,83.91
2018-08-19T00:38:03.371Z,83.62
2018-08-19T00:39:40.121Z,83.57
2018-08-19T00:41:15.674Z,83.37
2018-08-19T00:42:52.169Z,84.50
2018-08-19T00:44:27.355Z,84.33
2018-08-19T00:46:41.112Z,83.72
2018-08-19T00:48:16.492Z,84.58
2018-08-19T00:49:56.907Z,84.61
2018-08-19T00:51:32.352Z,84.38
2018-08-19T00:53:12.523Z,84.78
2018-08-19T00:54:47.716Z,84.09
2018-08-19T00:56:23.245Z,84.86
2018-08-19T00:58:02.292Z,84.40
2018-08-19T00:59:42.237Z,84.46
2018-08-19T01:01:30.255Z,84.38
2018-08-19T01:03:07.264Z,85.17
2018-08-19T01:04:44.863Z,84.47
2018-08-19T01:06:21.082Z,84.55
2018-08-19T01:07:59.486Z,85.18
2018-08-19T01:09:36.692Z,84.75
2018-08-19T01:11:48.032Z,85.48
2018-08-19T01:13:25.017Z,85.35
2018-08-19T01:15:04.709Z,85.42
2018-08-19T01:16:40.851Z,85.68
2018-08-19T01:18:18.827Z,85.67
2018-08-19T01:19:55.062Z,85.07
2018-08-19T01:21:31.754Z,86.08
2018-08-19T01:23:07.037Z,85.31
2018-08-19T01:24:42.697Z,85.56
2018-08-19T01:26:17.721Z,86.40
2018-08-19T01:27:53.333Z,86.27
2018-08-19T01:29:35.391Z,86.40
2018-08-19T01:31:15.531Z,85.85
2018-08-19T01:32:50.920Z,86.49
2018-08-19T01:34:32.059Z,85.84
2018-08-19T01:36:07.880Z,86.58
2018-08-19T01:37:44.038Z,86.38
2018-08-19T01:39:19.631Z,86.75
2018-08-19T01:40:55.555Z,86.02
2018-08-19T01:42:30.535Z,86.22
2018-08-19T01:44:10.893Z,86.50
2018-08-19T01:45:46.428Z,86.05
2018-08-19T01:47:22.820Z,86.50
2018-08-19T01:48:58.452Z,86.83
2018-08-19T01:50:33.741Z,87.10
2018-08-19T01:52:09.106Z,87.20
2018-08-19T01:53:45.663Z,86.54
2018-08-19T01:55:21.365Z,87.22
2018-08-19T01:57:01.922Z,86.87
2018-08-19T01:58:41.094Z,86.95
2018-08-19T02:00:19.455Z,87.10
2018-08-19T02:01:59.022Z,86.90
2018-08-19T02:03:35.279Z,87.05
2018-08-19T02:05:10.463Z,87.07
2018-08-19T02:06:45.803Z,87.79
2018-08-19T02:08:22.758Z,87.90
2018-08-19T02:10:04.195Z,87.56
2018-08-19T02:11:39.926Z,88.05
2018-08-19T02:13:15.441Z,88.30
2018-08-19T02:14:50.452Z,88.30
2018-08-19T02:16:26.405Z,87.88
2018-08-19T02:18:03.643Z,88.18
2018-08-19T02:19:43.707Z,88.15
2018-08-19T02:21:19.019Z,88.38
2018-08-19T02:23:00.701Z,87.86
2018-08-19T02:24:35.659Z,88.36
2018-08-19T02:26:12.178Z,88.48
2018-08-19T02:27:49.958Z,88.27
2018-08-19T02:29:37.211Z,88.41
2018-08-19T02:31:12.265Z,88.60
2018-08-19T02:32:47.202Z,88.48
2018-08-19T02:34:26.137Z,88.26
2018-08-19T02:36:04.620Z,89.06
2018-08-19T02:37:40.036Z,88.23
2018-08-19T02:39:15.216Z,89.21
2018-08-19T02:40:53.999Z,88.55
2018-08-19T02:42:29.190Z,89.08
2018-08-19T02:44:04.899Z,89.02
2018-08-19T02:45:40.229Z,88.68
2018-08-19T02:47:15.190Z,88.69
2018-08-19T02:48:51.548Z,89.41
2018-08-19T02:50:26.755Z,89.08
2018-08-19T02:52:02.711Z,89.65
2018-08-19T02:53:38.196Z,89.13
2018-08-19T02:55:13.142Z,89.45
2018-08-19T02:56:48.103Z,89.19
2018-08-19T02:58:23.155Z,89.67
2018-08-19T03:00:04.071Z,89.44
2018-08-19T03:01:39.794Z,89.13
2018-08-19T03:03:14.968Z,89.93
2018-08-19T03:04:50.135Z,89.58
2018-08-19T03:06:25.229Z,89.62
2018-08-19T03:08:00.904Z,89.48
2018-08-19T03:09:36.105Z,89.71
2018-08-19T03:11:12.100Z,89.49
2018-08-19T03:12:47.398Z,89.47
2018-08-19T03:14:22.351Z,89.52
2018-08-19T03:15:58.639Z,90.42
2018-08-19T03:17:34.265Z,89.80
2018-08-19T03:19:09.712Z,89.74
2018-08-19T03:20:44.770Z,90.66
2018-08-19T03:22:21.343Z,89.75
2018-08-19T03:23:57.638Z,89.89
2018-08-19T03:25:34.207Z,89.96
2018-08-19T03:27:09.476Z,89.80
2018-08-19T03:28:44.694Z,90.11
2018-08-19T03:30:19.752Z,90.18
2018-08-19T03:31:59.455Z,90.16
2018-08-19T03:33:34.551Z,90.54
2018-08-19T03:35:13.598Z,89.96
2018-08-19T03:36:48.562Z,90.44
2018-08-19T03:38:26.265Z,90.30
2018-08-19T03:40:01.840Z,90.21
2018-08-19T03:41:37.097Z,90.50
2018-08-19T03:43:13.223Z,90.15
2018-08-19T03:44:48.723Z,90.18
2018-08-19T03:46:24.313Z,90.96
2018-08-19T03:47:59.827Z,90.30
2018-08-19T03:49:34.783Z,90.97
2018-08-19T03:51:11.176Z,90.70
2018-08-19T03:52:46.593Z,90.44
2018-08-19T03:54:21.951Z,90.91
2018-08-19T03:55:57.748Z,91.10
2018-08-19T03:57:32.840Z,91.20
2018-08-19T03:59:08.389Z,90.43
2018-08-19T04:00:45.756Z,90.83
2018-08-19T04:02:21.257Z,90.62
2018-08-19T04:03:56.487Z,91.24
2018-08-19T04:05:47.064Z,90.71
2018-08-19T04:07:22.035Z,90.96
2018-08-19T04:08:57.811Z,91.09
2018-08-19T04:10:33.630Z,91.47
2018-08-19T04:12:12.347Z,91.17
2018-08-19T04:13:47.311Z,91.18
2018-08-19T04:15:22.323Z,91.01
2018-08-19T04:17:00.622Z,91.35
2018-08-19T04:18:50.260Z,90.99
2018-08-19T04:20:26.318Z,91.17
2018-08-19T04:22:03.079Z,91.20
2018-08-19T04:23:42.058Z,91.38
2018-08-19T04:25:23.234Z,91.27
2018-08-19T04:26:58.238Z,91.61
2018-08-19T04:28:37.604Z,91.15
2018-08-19T04:30:14.201Z,91.29
2018-08-19T04:31:49.194Z,91.57
2018-08-19T04:33:33.778Z,91.70
2018-08-19T04:35:09.742Z,91.91
2018-08-19T04:36:44.757Z,91.44
2018-08-19T04:38:20.272Z,91.54
2018-08-19T04:39:59.309Z,91.02
2018-08-19T04:41:37.357Z,91.76
2018-08-19T04:43:12.324Z,91.95
2018-08-19T04:44:52.447Z,91.17
2018-08-19T04:46:35.567Z,91.80
2018-08-19T04:48:13.674Z,91.51
2018-08-19T04:49:49.324Z,91.11
2018-08-19T04:51:24.373Z,91.11
2018-08-19T04:52:59.257Z,91.34
2018-08-19T04:54:34.522Z,91.22
2018-08-19T04:56:09.531Z,91.96
2018-08-19T04:57:45.458Z,91.42
2018-08-19T04:59:21.451Z,91.41
2018-08-19T05:00:58.006Z,91.99
2018-08-19T05:02:34.663Z,92.01
2018-08-19T05:04:09.634Z,91.42
2018-08-19T05:05:44.527Z,91.35
2018-08-19T05:07:20.041Z,91.75
2018-08-19T05:08:54.912Z,91.53
2018-08-19T05:10:30.352Z,91.21
2018-08-19T05:12:07.306Z,91.52
2018-08-19T05:13:42.232Z,91.19
2018-08-19T05:15:17.895Z,91.71
2018-08-19T05:16:54.083Z,91.65
2018-08-19T05:18:29.340Z,91.75
2018-08-19T05:20:15.003Z,91.42
2018-08-19T05:21:50.027Z,91.67
2018-08-19T05:23:25.066Z,91.63
2018-08-19T05:25:00.144Z,91.67
2018-08-19T05:26:35.651Z,91.79
2018-08-19T05:28:10.752Z,91.41
2018-08-19T05:29:45.844Z,90.96
2018-08-19T05:31:20.792Z,91.66
2018-08-19T05:33:02.073Z,91.45
2018-08-19T05:34:40.072Z,91.45
2018-08-19T05:36:15.115Z,91.34
2018-08-19T05:37:50.180Z,91.54
2018-08-19T05:39:25.057Z,91.27
2018-08-19T05:41:01.798Z,90.63
2018-08-19T05:42:36.682Z,91.03
2018-08-19T05:44:14.610Z,91.81
2018-08-19T05:46:01.929Z,90.98
2018-08-19T05:47:38.941Z,89.99
2018-08-19T05:49:13.923Z,90.67
2018-08-19T05:50:48.838Z,91.06
2018-08-19T05:52:24.654Z,90.72
2018-08-19T05:54:01.629Z,90.41
2018-08-19T05:55:39.570Z,90.12
2018-08-19T05:57:16.834Z,90.59
2018-08-19T05:58:52.464Z,89.53
2018-08-19T06:00:28.303Z,90.11
2018-08-19T06:02:03.260Z,89.60
2018-08-19T06:03:39.727Z,88.41
2018-08-19T06:05:14.795Z,88.05
2018-08-19T06:06:51.293Z,88.29
2018-08-19T06:08:26.407Z,87.23
2018-08-19T06:10:01.445Z,86.44
2018-08-19T06:11:37.493Z,86.75
2018-08-19T06:13:14.128Z,85.72
2018-08-19T06:14:49.575Z,84.71
2018-08-19T06:16:25.241Z,83.58
2018-08-19T06:18:01.065Z,83.10
2018-08-19T06:19:36.666Z,82.10
2018-08-19T06:21:13.492Z,81.11
2018-08-19T06:22:48.587Z,79.30
2018-08-19T06:24:25.632Z,78.93
2018-08-19T06:26:00.785Z,78.09
2018-08-19T06:27:44.006Z,77.04
2018-08-19T06:29:19.123Z,75.35
2018-08-19T06:30:54.545Z,74.86
2018-08-19T06:32:32.817Z,73.34
2018-08-19T06:34:08.060Z,72.72
2018-08-19T06:35:45.748Z,70.72
2018-08-19T06:37:23.028Z,71.53
2018-08-19T06:39:00.638Z,70.06
2018-08-19T06:40:35.687Z,68.74
2018-08-19T06:42:10.671Z,68.28
2018-08-19T06:43:46.275Z,67.54
2018-08-19T06:45:22.336Z,68.37
2018-08-19T06:46:58.579Z,66.84
2018-08-19T06:48:34.146Z,66.69
2018-08-19T06:50:21.732Z,67.20
2018-08-19T06:51:57.293Z,66.56
2018-08-19T06:53:32.873Z,66.70
2018-08-19T06:55:09.695Z,65.36
2018-08-19T06:56:46.657Z,64.70
2018-08-19T06:58:23.660Z,63.29
2018-08-19T06:59:58.902Z,63.62
2018-08-19T07:01:34.049Z,62.59
2018-08-19T07:03:09.972Z,62.11
2018-08-19T07:04:51.706Z,61.98
2018-08-19T07:06:27.640Z,61.89
2018-08-19T07:08:04.620Z,62.32
2018-08-19T07:09:40.767Z,61.05
2018-08-19T07:11:17.338Z,61.43
2018-08-19T07:12:57.321Z,59.80
2018-08-19T07:14:32.480Z,60.08
2018-08-19T07:16:08.466Z,59.19
2018-08-19T07:17:44.007Z,60.47
2018-08-19T07:19:19.118Z,59.51
2018-08-19T07:20:56.257Z,60.69
2018-08-19T07:22:32.217Z,59.19
2018-08-19T07:24:09.571Z,60.48
2018-08-19T07:25:47.332Z,59.55
2018-08-19T07:27:27.529Z,58.07
2018-08-19T07:29:06.482Z,58.87
2018-08-19T07:30:44.357Z,58.47
2018-08-19T07:32:21.745Z,59.39
2018-08-19T07:33:58.478Z,57.75
2018-08-19T07:35:36.066Z,57.73
2018-08-19T07:37:13.234Z,56.21
2018-08-19T07:38:49.138Z,56.26
2018-08-19T07:40:26.736Z,56.14
2018-08-19T07:42:01.887Z,55.70
2018-08-19T07:43:37.212Z,57.29
2018-08-19T07:45:18.007Z,55.62
2018-08-19T07:48:28.853Z,55.34
2018-08-19T07:50:06.751Z,55.10
2018-08-19T07:51:44.585Z,55.16
2018-08-19T07:53:20.092Z,55.19
2018-08-19T07:54:56.240Z,56.04
2018-08-19T07:56:31.874Z,56.13
2018-08-19T07:58:07.779Z,56.08
2018-08-19T07:59:52.712Z,55.33
2018-08-19T08:01:30.811Z,55.21
2018-08-19T08:03:06.003Z,54.51
2018-08-19T08:04:45.052Z,54.80
2018-08-19T08:06:20.297Z,55.33
2018-08-19T08:07:56.573Z,55.39
2018-08-19T08:09:32.696Z,54.68
2018-08-19T08:11:09.661Z,55.12
2018-08-19T08:12:48.995Z,53.64
2018-08-19T08:14:28.253Z,55.09
2018-08-19T08:16:04.294Z,53.87
2018-08-19T08:17:40.787Z,54.01
2018-08-19T08:19:18.020Z,54.17
2018-08-19T08:21:01.834Z,53.35
2018-08-19T08:22:38.128Z,53.82
2018-08-19T08:24:13.561Z,53.90
2018-08-19T08:25:50.215Z,54.03
2018-08-19T08:27:25.361Z,53.18
2018-08-19T08:29:06.682Z,53.78
2018-08-19T08:30:42.387Z,53.14
2018-08-19T08:32:19.260Z,54.32
2018-08-19T08:33:56.312Z,52.50
2018-08-19T08:35:32.711Z,52.03
2018-08-19T08:37:13.099Z,52.54
2018-08-19T08:38:49.281Z,52.51
2018-08-19T08:40:25.127Z,52.49
2018-08-19T08:42:01.196Z,53.01
2018-08-19T08:43:36.345Z,51.25
2018-08-19T08:45:16.549Z,52.21
2018-08-19T08:46:54.685Z,51.28
2018-08-19T08:48:30.010Z,50.45
2018-08-19T08:50:05.760Z,50.51
2018-08-19T08:51:41.812Z,49.49
2018-08-19T08:53:17.724Z,50.66
2018-08-19T08:54:57.324Z,50.23
2018-08-19T08:56:32.785Z,50.23
2018-08-19T08:58:08.514Z,48.42
2018-08-19T08:59:44.340Z,48.30
2018-08-19T09:01:23.121Z,49.93
2018-08-19T09:03:00.106Z,50.07
2018-08-19T09:04:36.956Z,49.49
2018-08-19T09:06:30.185Z,48.77
2018-08-19T09:08:06.687Z,49.72
2018-08-19T09:09:47.446Z,48.59
2018-08-19T09:11:23.747Z,49.53
2018-08-19T09:13:12.620Z,49.25
2018-08-19T09:14:58.984Z,47.78
2018-08-19T09:16:35.562Z,48.11
2018-08-19T09:18:16.867Z,48.38
2018-08-19T09:19:53.559Z,47.80
2018-08-19T09:21:30.993Z,48.52
2018-08-19T09:23:07.731Z,48.53
2018-08-19T09:24:46.923Z,47.49
2018-08-19T09:26:43.666Z,46.54
2018-08-19T09:30:35.429Z,47.27
2018-08-19T09:32:15.896Z,48.62
2018-08-19T09:33:58.418Z,48.95
2018-08-19T09:35:44.792Z,49.50
2018-08-19T09:37:23.476Z,47.69
2018-08-19T09:39:01.447Z,46.99
2018-08-19T09:42:58.816Z,47.22
2018-08-19T09:44:35.494Z,46.77
2018-08-19T09:46:11.146Z,47.34
2018-08-19T09:47:47.165Z,46.95
2018-08-19T09:49:25.535Z,46.41
2018-08-19T09:51:16.118Z,45.41
2018-08-19T09:52:55.381Z,46.11
2018-08-19T09:54:35.142Z,45.86
2018-08-19T09:56:15.377Z,47.08
2018-08-19T09:58:03.076Z,47.31
2018-08-19T09:59:46.593Z,47.35
2018-08-19T10:01:31.847Z,47.46
2018-08-19T10:03:09.007Z,46.12
2018-08-19T10:04:47.369Z,46.51
2018-08-19T10:06:22.723Z,46.09
2018-08-19T10:08:00.099Z,45.43
2018-08-19T10:09:37.032Z,44.60
2018-08-19T10:11:14.001Z,45.02
2018-08-19T10:12:49.238Z,44.62
2018-08-19T10:14:26.328Z,45.04
2018-08-19T10:16:05.586Z,44.73
2018-08-19T10:17:44.670Z,44.67
2018-08-19T10:19:22.831Z,44.76
2018-08-19T10:21:02.009Z,44.36
2018-08-19T10:22:40.969Z,45.89
2018-08-19T10:24:28.603Z,45.42
2018-08-19T10:26:05.095Z,44.65
2018-08-19T10:27:41.198Z,44.55
2018-08-19T10:29:17.399Z,44.64
2018-08-19T10:31:04.115Z,43.59
2018-08-19T10:32:39.682Z,44.81
2018-08-19T10:34:15.093Z,43.45
2018-08-19T10:35:54.123Z,42.47
2018-08-19T10:37:35.086Z,42.91
2018-08-19T10:39:17.003Z,42.94
2018-08-19T10:41:04.763Z,41.21
2018-08-19T10:42:42.544Z,41.80
2018-08-19T10:44:18.029Z,41.86
2018-08-19T10:45:54.848Z,42.71
2018-08-19T10:47:35.013Z,41.40
2018-08-19T10:49:20.164Z,41.45
2018-08-19T10:50:58.133Z,41.78
2018-08-19T10:52:36.293Z,41.12
2018-08-19T10:54:15.081Z,41.21
2018-08-19T10:55:51.575Z,41.61
2018-08-19T10:57:35.298Z,41.70
2018-08-19T10:59:13.012Z,41.03
2018-08-19T11:00:57.786Z,41.69
2018-08-19T11:02:36.828Z,40.90
2018-08-19T11:04:23.002Z,42.52
2018-08-19T11:05:59.629Z,43.52
2018-08-19T11:07:38.254Z,43.39
2018-08-19T11:09:16.081Z,43.80
2018-08-19T11:10:53.942Z,42.52
2018-08-19T11:12:34.637Z,41.54
2018-08-19T11:14:14.149Z,40.59
2018-08-19T11:15:58.577Z,40.69
2018-08-19T11:17:36.691Z,41.12
2018-08-19T11:19:17.238Z,40.60
2018-08-19T11:21:03.143Z,41.30
2018-08-19T11:22:47.569Z,42.25
2018-08-19T11:24:29.788Z,42.58
2018-08-19T11:26:14.534Z,42.04
2018-08-19T11:27:58.332Z,43.21
2018-08-19T11:29:39.675Z,40.90
2018-08-19T11:31:24.508Z,40.76
2018-08-19T11:33:02.830Z,41.15
2018-08-19T11:34:43.449Z,40.71
2018-08-19T11:36:23.144Z,40.80
2018-08-19T11:38:03.992Z,40.27
2018-08-19T11:39:46.505Z,39.63
2018-08-19T11:41:27.335Z,39.83
2018-08-19T11:43:04.245Z,39.05
2018-08-19T11:44:47.240Z,37.84
2018-08-19T11:46:24.346Z,38.25
2018-08-19T11:48:08.264Z,38.43
2018-08-19T11:49:47.465Z,40.42
2018-08-19T11:51:31.534Z,40.40
2018-08-19T11:53:09.664Z,40.40
2018-08-19T11:54:49.354Z,42.31
2018-08-19T11:56:30.378Z,42.40
2018-08-19T11:58:11.543Z,42.37
2018-08-19T11:59:48.350Z,42.13
2018-08-19T12:01:27.606Z,41.93
2018-08-19T12:03:04.523Z,40.91
2018-08-19T12:04:43.619Z,40.54
2018-08-19T12:06:23.631Z,39.88
2018-08-19T12:10:11.996Z,39.45
2018-08-19T12:11:50.231Z,40.40
2018-08-19T12:13:27.375Z,39.46
2018-08-19T12:15:06.899Z,39.43
2018-08-19T12:16:53.089Z,39.05
2018-08-19T12:18:30.054Z,38.78
2018-08-19T12:20:09.653Z,39.08
2018-08-19T12:22:03.352Z,39.39
2018-08-19T12:23:39.671Z,40.15
2018-08-19T12:25:17.544Z,40.97
2018-08-19T12:26:57.498Z,38.98
2018-08-19T12:28:40.670Z,39.49
2018-08-19T12:30:24.447Z,40.83
2018-08-19T12:32:20.581Z,38.93
2018-08-19T12:33:57.251Z,38.42
2018-08-19T12:35:39.321Z,39.53
2018-08-19T12:37:17.494Z,39.37
2018-08-19T12:38:52.814Z,39.07
2018-08-19T12:40:30.217Z,40.10
2018-08-19T12:42:20.735Z,41.72
2018-08-19T12:44:03.170Z,38.96
2018-08-19T12:45:39.476Z,38.96
2018-08-19T12:47:19.690Z,38.39
2018-08-19T12:48:57.993Z,38.38
2018-08-19T12:50:35.578Z,38.13
2018-08-19T12:52:16.715Z,38.69
2018-08-19T12:53:53.340Z,38.74
2018-08-19T12:55:30.791Z,38.93
2018-08-19T12:57:08.884Z,39.22
2018-08-19T12:58:48.681Z,37.45
2018-08-19T13:00:40.572Z,38.06
2018-08-19T13:02:19.965Z,38.50
2018-08-19T13:04:00.269Z,39.31
2018-08-19T13:05:38.538Z,39.60
2018-08-19T13:07:16.525Z,40.81
2018-08-19T13:08:57.438Z,39.47
2018-08-19T13:10:38.769Z,40.59
2018-08-19T13:12:18.349Z,40.25
2018-08-19T13:13:54.262Z,40.51
2018-08-19T13:15:36.325Z,39.12
2018-08-19T13:17:14.068Z,39.28
2018-08-19T13:18:53.644Z,40.50
2018-08-19T13:20:31.574Z,40.52
2018-08-19T13:22:07.716Z,39.94
2018-08-19T13:23:43.221Z,39.54
2018-08-19T13:25:20.482Z,39.57
2018-08-19T13:26:57.125Z,39.34
2018-08-19T13:28:34.807Z,39.90
2018-08-19T13:30:12.501Z,39.60
2018-08-19T13:31:51.328Z,38.74
2018-08-19T13:33:28.939Z,39.57
2018-08-19T13:35:04.273Z,41.45
2018-08-19T13:36:42.118Z,41.98
2018-08-19T13:38:40.456Z,40.57
2018-08-19T13:40:16.805Z,40.34
2018-08-19T13:41:57.414Z,40.67
2018-08-19T13:43:35.233Z,41.00
2018-08-19T13:45:21.172Z,39.87
2018-08-19T13:47:00.761Z,39.33
2018-08-19T13:48:39.436Z,40.02
2018-08-19T13:50:19.720Z,40.85
2018-08-19T13:51:58.374Z,39.07
2018-08-19T13:53:36.399Z,39.55
2018-08-19T13:55:20.288Z,39.82
2018-08-19T13:58:48.553Z,40.83
2018-08-19T14:00:47.064Z,41.08
2018-08-19T14:02:27.029Z,41.26
2018-08-19T14:04:05.000Z,40.72
2018-08-19T14:05:45.723Z,39.64
2018-08-19T14:07:26.405Z,40.17
2018-08-19T14:09:11.300Z,39.42
2018-08-19T14:10:51.043Z,38.78
2018-08-19T14:12:28.742Z,40.22
2018-08-19T14:14:10.237Z,40.40
2018-08-19T14:15:54.731Z,40.23
2018-08-19T14:17:33.809Z,38.82
2018-08-19T14:19:13.961Z,39.11
2018-08-19T14:20:56.170Z,39.64
2018-08-19T14:22:34.947Z,39.39
2018-08-19T14:24:19.982Z,38.17
2018-08-19T14:26:08.152Z,38.19
2018-08-19T14:27:53.110Z,38.65
2018-08-19T14:29:30.732Z,37.82
2018-08-19T14:31:08.568Z,37.46
2018-08-19T14:33:09.373Z,38.08
2018-08-19T14:34:52.302Z,38.03
2018-08-19T14:36:30.131Z,37.82
2018-08-19T14:38:10.534Z,36.44
2018-08-19T14:39:56.989Z,37.91
2018-08-19T14:41:36.122Z,37.85
2018-08-19T14:43:12.628Z,38.13
2018-08-19T14:44:53.156Z,37.96
2018-08-19T14:46:32.668Z,37.38
2018-08-19T14:48:13.276Z,37.69
2018-08-19T14:49:52.859Z,37.40
2018-08-19T14:51:43.583Z,36.98
2018-08-19T14:53:28.383Z,37.30
2018-08-19T14:55:07.042Z,36.91
2018-08-19T14:56:46.234Z,35.66
2018-08-19T14:58:30.313Z,36.01
2018-08-19T15:00:23.436Z,37.24
2018-08-19T15:02:04.627Z,37.26
2018-08-19T15:03:53.643Z,36.66
2018-08-19T15:05:33.475Z,36.38
2018-08-19T15:07:11.606Z,37.15
2018-08-19T15:08:51.966Z,37.92
2018-08-19T15:10:34.744Z,37.04
2018-08-19T15:12:17.666Z,36.79
2018-08-19T15:13:59.919Z,36.68
2018-08-19T15:15:36.558Z,37.52
2018-08-19T15:17:19.320Z,38.46
2018-08-19T15:18:58.345Z,38.72
2018-08-19T15:20:40.143Z,38.53
2018-08-19T15:22:21.366Z,38.62
2018-08-19T15:24:02.047Z,39.14
2018-08-19T15:25:41.499Z,39.33
2018-08-19T15:27:21.814Z,37.75
2018-08-19T15:28:58.870Z,38.98
2018-08-19T15:30:38.755Z,39.24
2018-08-19T15:32:17.613Z,39.54
2018-08-19T15:34:06.597Z,38.96
2018-08-19T15:35:45.329Z,39.03
2018-08-19T15:37:21.553Z,40.23
2018-08-19T15:39:01.743Z,40.99
2018-08-19T15:40:43.097Z,40.71
2018-08-19T15:42:20.820Z,39.87
2018-08-19T15:44:01.453Z,41.28
2018-08-19T15:45:42.159Z,40.89
2018-08-19T15:47:23.297Z,41.09
2018-08-19T15:49:00.019Z,39.89
2018-08-19T15:50:40.816Z,40.59
2018-08-19T15:52:21.345Z,41.90
2018-08-19T15:53:58.729Z,41.52
2018-08-19T15:55:39.669Z,42.89
2018-08-19T15:57:25.255Z,43.04
2018-08-19T15:59:07.752Z,42.92
2018-08-19T16:00:45.697Z,45.02
2018-08-19T16:02:26.381Z,44.31
2018-08-19T16:04:41.841Z,43.78
2018-08-19T16:06:32.433Z,44.15
2018-08-19T16:08:13.436Z,43.79
2018-08-19T16:09:52.042Z,43.48
2018-08-19T16:11:33.259Z,44.36
2018-08-19T16:13:15.012Z,43.93
2018-08-19T16:15:03.351Z,45.18
2018-08-19T16:16:53.352Z,44.60
2018-08-19T16:18:37.610Z,43.39
2018-08-19T16:20:23.358Z,44.38
2018-08-19T16:25:27.744Z,43.81
2018-08-19T16:27:07.800Z,42.81
2018-08-19T16:28:46.361Z,43.85
2018-08-19T16:30:26.710Z,44.57
2018-08-19T16:32:07.565Z,44.50
2018-08-19T16:33:47.523Z,44.20
2018-08-19T16:35:24.445Z,44.44
2018-08-19T16:37:04.211Z,44.56
2018-08-19T16:38:41.150Z,44.03
2018-08-19T16:40:19.302Z,43.67
2018-08-19T16:41:58.746Z,42.86
2018-08-19T16:43:37.566Z,44.05
2018-08-19T16:45:17.339Z,43.00
2018-08-19T16:46:56.827Z,44.59
2018-08-19T16:48:38.219Z,43.51
2018-08-19T16:51:58.769Z,44.82
2018-08-19T16:53:45.520Z,45.08
2018-08-19T16:55:26.561Z,44.96
2018-08-19T16:57:05.590Z,44.71
2018-08-19T16:58:43.954Z,45.14
2018-08-19T17:00:21.536Z,44.74
2018-08-19T17:02:00.958Z,44.49
2018-08-19T17:03:40.603Z,45.76
2018-08-19T17:05:33.867Z,45.99
2018-08-19T17:07:16.243Z,44.69
2018-08-19T17:08:53.298Z,45.29
2018-08-19T17:10:33.205Z,46.02
2018-08-19T17:12:11.388Z,45.81
2018-08-19T17:13:56.040Z,45.46
2018-08-19T17:15:37.497Z,45.77
2018-08-19T17:17:18.478Z,46.51
2018-08-19T17:19:04.268Z,46.12
2018-08-19T17:20:41.859Z,46.14
2018-08-19T17:22:24.612Z,45.78
2018-08-19T17:24:04.295Z,46.81
2018-08-19T17:25:47.696Z,45.64
2018-08-19T17:27:29.224Z,45.80
2018-08-19T17:29:17.182Z,46.55
2018-08-19T17:31:00.742Z,46.09
2018-08-19T17:32:44.162Z,46.58
2018-08-19T17:36:28.755Z,46.12
2018-08-19T17:38:06.704Z,46.53
2018-08-19T17:39:45.936Z,46.90
2018-08-19T17:41:23.945Z,47.70
2018-08-19T17:43:09.439Z,47.70
2018-08-19T17:44:47.087Z,48.02
2018-08-19T17:46:25.712Z,47.37
2018-08-19T17:48:04.581Z,48.49
2018-08-19T17:49:49.256Z,48.24
2018-08-19T17:51:36.865Z,48.22
2018-08-19T17:53:14.979Z,48.93
2018-08-19T17:54:53.851Z,48.29
2018-08-19T17:56:34.266Z,49.04
2018-08-19T17:58:14.786Z,48.55
2018-08-19T18:00:01.011Z,48.73
2018-08-19T18:01:46.161Z,49.80
2018-08-19T18:03:27.351Z,50.27
2018-08-19T18:05:05.721Z,50.35
2018-08-19T18:06:43.812Z,50.01
2018-08-19T18:08:25.038Z,50.62
2018-08-19T18:10:07.109Z,50.15
2018-08-19T18:11:47.189Z,50.72
2018-08-19T18:13:26.514Z,50.29
2018-08-19T18:15:10.236Z,50.55
2018-08-19T18:17:06.236Z,51.30
2018-08-19T18:20:41.407Z,50.97
2018-08-19T18:22:23.502Z,51.60
2018-08-19T18:24:09.786Z,51.87
2018-08-19T18:25:52.278Z,51.93
2018-08-19T18:27:35.782Z,52.36
2018-08-19T18:29:16.258Z,53.24
2018-08-19T18:30:59.905Z,52.49
2018-08-19T18:32:39.324Z,53.53
2018-08-19T18:36:04.755Z,53.59
2018-08-19T18:37:41.798Z,54.39
2018-08-19T18:39:25.224Z,54.31
2018-08-19T18:41:07.219Z,55.35
2018-08-19T18:42:45.485Z,54.54
2018-08-19T18:44:25.135Z,55.74
2018-08-19T18:46:01.383Z,55.52
2018-08-19T18:47:53.394Z,55.26
2018-08-19T18:49:37.507Z,56.61
2018-08-19T18:51:17.553Z,56.83
2018-08-19T18:52:59.335Z,56.89
2018-08-19T18:54:38.477Z,57.22
2018-08-19T18:56:17.813Z,57.50
2018-08-19T18:58:01.434Z,57.29
2018-08-19T18:59:43.981Z,58.81
2018-08-19T19:01:24.726Z,59.09
2018-08-19T19:03:03.144Z,58.68
2018-08-19T19:04:42.726Z,59.22
2018-08-19T19:06:20.408Z,59.31
2018-08-19T19:08:06.642Z,60.34
2018-08-19T19:09:52.725Z,60.19
2018-08-19T19:11:36.934Z,61.59
2018-08-19T19:13:14.117Z,61.58
2018-08-19T19:15:08.136Z,61.23
2018-08-19T19:17:00.462Z,61.16
2018-08-19T19:18:39.743Z,62.48
2018-08-19T19:20:19.220Z,62.54
2018-08-19T19:22:04.647Z,63.29
2018-08-19T19:23:50.811Z,63.49
2018-08-19T19:25:33.567Z,63.55
2018-08-19T19:27:15.058Z,63.48
2018-08-19T19:28:52.584Z,65.07
2018-08-19T19:30:30.576Z,64.60
2018-08-19T19:32:19.299Z,65.35
2018-08-19T19:34:07.272Z,64.58
2018-08-19T19:35:48.630Z,64.96
2018-08-19T19:37:28.366Z,66.27
2018-08-19T19:39:10.252Z,65.51
2018-08-19T19:40:52.345Z,65.54
2018-08-19T19:42:33.922Z,66.15
2018-08-19T19:44:26.461Z,65.90
2018-08-19T19:46:11.216Z,66.88
2018-08-19T19:47:46.854Z,67.49
2018-08-19T19:49:26.402Z,67.37
2018-08-19T19:51:05.408Z,67.74
2018-08-19T19:52:52.109Z,68.09
2018-08-19T19:54:31.056Z,67.65
2018-08-19T19:56:12.072Z,67.90
2018-08-19T19:57:49.179Z,68.38
2018-08-19T19:59:33.855Z,68.73
2018-08-19T20:01:13.248Z,69.02
2018-08-19T20:02:49.439Z,69.73
2018-08-19T20:04:26.805Z,69.34
2018-08-19T20:06:06.228Z,69.27
2018-08-19T20:07:45.582Z,69.70
2018-08-19T20:09:41.492Z,69.54
2018-08-19T20:11:23.377Z,70.38
2018-08-19T20:13:05.508Z,70.47
2018-08-19T20:14:46.957Z,70.65
2018-08-19T20:18:10.578Z,70.54
2018-08-19T20:19:56.489Z,71.04
2018-08-19T20:21:44.170Z,71.02
2018-08-19T20:23:25.717Z,70.82
2018-08-19T20:25:01.986Z,71.85
2018-08-19T20:26:38.566Z,71.25
2018-08-19T20:28:18.488Z,71.28
2018-08-19T20:30:00.497Z,71.56
2018-08-19T20:33:32.520Z,71.72
2018-08-19T20:35:22.738Z,71.93
2018-08-19T20:37:00.376Z,72.17
2018-08-19T20:38:38.719Z,72.08
2018-08-19T20:40:19.215Z,72.04
2018-08-19T20:42:06.209Z,72.47
2018-08-19T20:43:44.001Z,72.36
2018-08-19T20:45:20.511Z,72.42
2018-08-19T20:47:00.675Z,72.76
2018-08-19T20:48:44.959Z,72.56
2018-08-19T20:50:27.702Z,72.21
2018-08-19T20:52:09.906Z,72.34
2018-08-19T20:53:50.406Z,72.72
2018-08-19T20:55:31.460Z,72.79
2018-08-19T20:57:09.853Z,72.90
2018-08-19T20:58:46.222Z,72.91
2018-08-19T21:00:22.783Z,73.06
2018-08-19T21:02:10.564Z,73.34
2018-08-19T21:03:52.844Z,73.27
2018-08-19T21:05:30.993Z,72.93
2018-08-19T21:07:09.210Z,73.54
2018-08-19T21:08:45.867Z,73.34
2018-08-19T21:10:24.775Z,73.35
2018-08-19T21:12:06.363Z,74.12
2018-08-19T21:13:42.335Z,73.81
2018-08-19T21:15:24.210Z,74.13
2018-08-19T21:17:03.538Z,73.72
2018-08-19T21:18:42.767Z,74.20
2018-08-19T21:20:21.959Z,74.64
2018-08-19T21:21:59.670Z,74.38
2018-08-19T21:23:42.601Z,74.82
2018-08-19T21:25:22.176Z,74.29
2018-08-19T21:27:05.895Z,75.08
2018-08-19T21:32:44.649Z,74.94
2018-08-19T21:34:22.700Z,75.22
2018-08-19T21:36:02.161Z,75.23
2018-08-19T21:37:38.693Z,75.54
2018-08-19T21:39:15.842Z,75.20
2018-08-19T21:41:02.581Z,75.97
2018-08-19T21:43:02.535Z,75.85
2018-08-19T21:44:45.620Z,76.05
2018-08-19T21:46:27.977Z,76.08
2018-08-19T21:48:11.987Z,76.49